Paradis, Louisiana
Current Conditions -  °F | °C
As of 9:53 AM on Sunday 25 Jan 2015 (Local Time) from KMSY Reporting Station
Few Clouds Few Clouds  
Wind Chill: 57°   Ceiling: Unl
Heat Index: 57°   Visibility: 10mi
Dew Point: 43°   Wind: 13mph
Humidity: 59%   Direction: 230°SW
Pressure: 30.03"   Gusts: NA
Location:  29.88°N, 90.43°W
Report Text: KMSY 251553Z 23011KT 10SM FEW250 14/06 A3003 RMK AO2 SLP172 T01390061
Loading
Personal Weather Stations






























Interactive Weather Map New forecast layout! Learn more

10-Day Weather Forecast

Advertisements
Track Severe Weather on mobile